VTREG CYMO-CYFB

Flight info

Callsign VTREG
Flight time 3h 1m
Altitude 29000
Route YGL DCT TAGIS
Aircraft SF50/L-BDGRSWY/LB2U2

Departure

Time 2026-04-17 23:30
Airport Moosonee Airport (CYMO)

Arrival

Time 2026-04-18 02:31
Airport Iqaluit Airport (CYFB)
Time Latitude Longitude Altitude Speed Heading
2026-04-17 23:21 51.29003 -80.61517 29 ft 0 kts 136°
2026-04-17 23:27 51.28996 -80.61492 29 ft 9 kts 114°
2026-04-17 23:27 51.28975 -80.61418 29 ft 10 kts 114°
2026-04-17 23:27 51.28944 -80.61299 29 ft 5 kts 117°
2026-04-17 23:28 51.28929 -80.61255 28 ft 10 kts 115°
2026-04-17 23:28 51.28900 -80.61125 28 ft 12 kts 106°
2026-04-17 23:28 51.28875 -80.61006 28 ft 13 kts 107°
2026-04-17 23:28 51.28839 -80.60859 28 ft 9 kts 72°
2026-04-17 23:29 51.28846 -80.60844 28 ft 0 kts 40°
2026-04-17 23:29 51.28875 -80.60801 28 ft 26 kts 44°
2026-04-17 23:29 51.29142 -80.60390 29 ft 79 kts 44°
2026-04-17 23:29 51.29581 -80.59617 219 ft 98 kts 57°
2026-04-17 23:30 51.29988 -80.58781 695 ft 94 kts 52°
2026-04-17 23:30 51.30719 -80.58472 932 ft 129 kts
2026-04-17 23:30 51.31606 -80.58107 1115 ft 137 kts 44°
2026-04-17 23:30 51.32390 -80.57109 1405 ft 158 kts 45°
2026-04-17 23:31 51.33342 -80.56033 1836 ft 172 kts 44°
2026-04-17 23:31 51.34341 -80.54887 2297 ft 183 kts 43°
2026-04-17 23:31 51.35405 -80.53651 2763 ft 193 kts 40°
2026-04-17 23:31 51.36555 -80.52532 3256 ft 200 kts 22°
2026-04-17 23:32 51.37903 -80.51818 3791 ft 202 kts 16°
2026-04-17 23:32 51.39213 -80.51055 4350 ft 204 kts 19°
2026-04-17 23:32 51.40555 -80.50188 4885 ft 206 kts 19°
2026-04-17 23:32 51.41874 -80.49357 5392 ft 207 kts 18°
2026-04-17 23:33 51.43222 -80.48510 5912 ft 209 kts 17°
2026-04-17 23:33 51.44581 -80.47660 6418 ft 210 kts 16°
2026-04-17 23:33 51.45948 -80.46798 6895 ft 211 kts 16°
2026-04-17 23:33 51.47310 -80.45942 7362 ft 212 kts 15°
2026-04-17 23:34 51.48688 -80.45074 7839 ft 212 kts 15°
2026-04-17 23:34 51.50069 -80.44204 8306 ft 213 kts 14°
2026-04-17 23:34 51.51452 -80.43328 8758 ft 214 kts 14°
2026-04-17 23:34 51.52835 -80.42454 9208 ft 214 kts 13°
2026-04-17 23:35 51.54224 -80.41575 9648 ft 216 kts 13°
2026-04-17 23:35 51.55623 -80.40689 10072 ft 216 kts 13°
2026-04-17 23:35 51.57021 -80.39803 10463 ft 217 kts 12°
2026-04-17 23:35 51.58413 -80.38921 10855 ft 218 kts 12°
2026-04-17 23:36 51.59829 -80.38021 11244 ft 219 kts 12°
2026-04-17 23:36 51.61264 -80.37111 11650 ft 220 kts 11°
2026-04-17 23:36 51.62678 -80.36214 12023 ft 221 kts 11°
2026-04-17 23:36 51.64115 -80.35301 12431 ft 222 kts 11°
2026-04-17 23:37 51.65550 -80.34391 12818 ft 223 kts 10°
2026-04-17 23:37 51.67001 -80.33469 13217 ft 224 kts 10°
2026-04-17 23:37 51.68450 -80.32547 13615 ft 225 kts
2026-04-17 23:37 51.69912 -80.31617 13989 ft 226 kts
2026-04-17 23:38 51.71384 -80.30680 14331 ft 228 kts
2026-04-17 23:38 51.72866 -80.29736 14674 ft 230 kts
2026-04-17 23:38 51.74357 -80.28785 15029 ft 231 kts 10°
2026-04-17 23:38 51.75850 -80.27832 15368 ft 232 kts 10°
2026-04-17 23:39 51.77359 -80.26868 15718 ft 234 kts 10°
2026-04-17 23:39 51.78873 -80.25897 16065 ft 235 kts 10°
2026-04-17 23:39 51.80401 -80.24919 16414 ft 237 kts 10°
2026-04-17 23:39 51.81936 -80.23938 16756 ft 238 kts 10°
2026-04-17 23:40 51.83488 -80.22939 17105 ft 240 kts 11°
2026-04-17 23:40 51.84538 -80.22264 17342 ft 241 kts 11°
2026-04-17 23:40 51.86628 -80.20922 17821 ft 243 kts 11°
2026-04-17 23:40 51.88202 -80.19910 18175 ft 244 kts 11°
2026-04-17 23:41 51.89784 -80.18888 18484 ft 246 kts 11°
2026-04-17 23:41 51.91363 -80.17872 18795 ft 246 kts 11°
2026-04-17 23:41 51.92961 -80.16845 19114 ft 247 kts 11°
2026-04-17 23:41 51.94566 -80.15813 19418 ft 248 kts 12°
2026-04-17 23:42 51.96172 -80.14777 19730 ft 249 kts 12°
2026-04-17 23:42 51.97787 -80.13736 20043 ft 251 kts 12°
2026-04-17 23:42 51.99410 -80.12689 20357 ft 251 kts 12°
2026-04-17 23:42 52.01037 -80.11637 20668 ft 252 kts 12°
2026-04-17 23:43 52.02674 -80.10579 21002 ft 253 kts 12°
2026-04-17 23:43 52.04310 -80.09518 21352 ft 252 kts 12°
2026-04-17 23:43 52.05890 -80.08217 21661 ft 263 kts 31°
2026-04-17 23:43 52.07035 -80.05840 22010 ft 271 kts 59°
2026-04-17 23:44 52.07850 -80.03067 22348 ft 271 kts 64°
2026-04-17 23:44 52.08606 -80.00304 22674 ft 271 kts 64°
2026-04-17 23:44 52.09440 -79.97567 23003 ft 269 kts 56°
2026-04-17 23:44 52.10561 -79.95132 23339 ft 263 kts 41°
2026-04-17 23:45 52.13519 -79.92238 23922 ft 243 kts
2026-04-17 23:45 52.15135 -79.91415 24195 ft 243 kts
2026-04-17 23:45 52.16726 -79.90443 24474 ft 245 kts 12°
2026-04-17 23:46 52.18298 -79.89379 24744 ft 244 kts 12°
2026-04-17 23:46 52.19869 -79.88356 25012 ft 243 kts 11°
2026-04-17 23:46 52.21443 -79.87352 25283 ft 242 kts 11°
2026-04-17 23:46 52.23007 -79.86346 25549 ft 241 kts 11°
2026-04-17 23:47 52.24561 -79.85339 25811 ft 240 kts 11°
2026-04-17 23:47 52.26098 -79.84345 26062 ft 240 kts 11°
2026-04-17 23:47 52.27649 -79.83343 26330 ft 239 kts 11°
2026-04-17 23:47 52.29195 -79.82343 26591 ft 238 kts 11°
2026-04-17 23:48 52.30736 -79.81347 26841 ft 238 kts 11°
2026-04-17 23:48 52.32276 -79.80351 27098 ft 237 kts 11°
2026-04-17 23:48 52.33810 -79.79356 27352 ft 237 kts 11°
2026-04-17 23:48 52.35341 -79.78364 27606 ft 236 kts 11°
2026-04-17 23:49 52.36868 -79.77374 27852 ft 236 kts 11°
2026-04-17 23:49 52.38391 -79.76386 28099 ft 235 kts 11°
2026-04-17 23:49 52.39911 -79.75397 28345 ft 235 kts 11°
2026-04-17 23:49 52.41429 -79.74411 28586 ft 235 kts 10°
2026-04-17 23:50 52.42947 -79.73423 28826 ft 234 kts 10°
2026-04-17 23:50 52.44462 -79.72437 29016 ft 236 kts 10°
2026-04-17 23:50 52.46023 -79.71432 29023 ft 246 kts 11°
2026-04-17 23:50 52.47650 -79.70371 29025 ft 256 kts 11°
2026-04-17 23:51 52.49329 -79.69271 29025 ft 263 kts 12°
2026-04-17 23:51 52.51061 -79.68136 29022 ft 271 kts 12°
2026-04-17 23:51 52.52830 -79.66976 29026 ft 277 kts 12°
2026-04-17 23:51 52.54563 -79.65819 29684 ft 255 kts 12°
2026-04-17 23:52 52.56129 -79.64771 30369 ft 234 kts
2026-04-17 23:52 52.57636 -79.63809 30576 ft 232 kts
2026-04-17 23:52 52.59143 -79.62838 30765 ft 233 kts
2026-04-17 23:52 52.60645 -79.61843 30963 ft 232 kts
2026-04-17 23:53 52.62158 -79.60851 31023 ft 239 kts
2026-04-17 23:53 52.63734 -79.59825 31032 ft 247 kts
2026-04-17 23:53 52.65335 -79.58768 31034 ft 256 kts
2026-04-17 23:53 52.67032 -79.57645 31036 ft 263 kts
2026-04-17 23:54 52.68728 -79.56524 31030 ft 269 kts
2026-04-17 23:54 52.70489 -79.55361 31037 ft 275 kts
2026-04-17 23:54 52.72283 -79.54175 31033 ft 281 kts 10°
2026-04-17 23:54 52.74110 -79.52965 31039 ft 285 kts 10°
2026-04-17 23:55 52.75964 -79.51737 31037 ft 289 kts 10°
2026-04-17 23:55 52.77846 -79.50490 31036 ft 292 kts 10°
2026-04-17 23:55 52.79745 -79.49232 31038 ft 296 kts 10°
2026-04-17 23:55 52.81659 -79.47962 31038 ft 298 kts 10°
2026-04-17 23:56 52.83599 -79.46673 31040 ft 301 kts 10°
2026-04-17 23:56 52.87488 -79.44086 31040 ft 305 kts 11°
2026-04-17 23:57 52.91452 -79.41445 31046 ft 309 kts 11°
2026-04-17 23:57 52.95477 -79.38757 31046 ft 313 kts 11°
2026-04-17 23:58 52.99547 -79.36034 31048 ft 317 kts 11°
2026-04-17 23:58 53.03665 -79.33273 31050 ft 320 kts 11°
2026-04-17 23:59 53.07810 -79.30488 31056 ft 323 kts 11°
2026-04-17 23:59 53.11982 -79.27671 31056 ft 321 kts 10°
2026-04-18 00:00 53.16106 -79.24893 31062 ft 321 kts 10°
2026-04-18 00:00 53.20250 -79.22087 31062 ft 322 kts 10°
2026-04-18 00:01 53.24402 -79.19273 31064 ft 320 kts 10°
2026-04-18 00:01 53.28529 -79.16472 31069 ft 321 kts 10°
2026-04-18 00:02 53.32672 -79.13646 31073 ft 322 kts 11°
2026-04-18 00:02 53.36834 -79.11090 31078 ft 317 kts
2026-04-18 00:03 53.40986 -79.08260 31078 ft 323 kts 12°
2026-04-18 00:03 53.45131 -79.05408 31086 ft 321 kts
2026-04-18 00:04 53.49245 -79.02592 31089 ft 322 kts 10°
2026-04-18 00:04 53.53438 -78.99707 31092 ft 322 kts 10°
2026-04-18 00:05 53.57585 -78.96849 31100 ft 323 kts 10°
2026-04-18 00:05 53.61748 -78.93973 31102 ft 323 kts 10°
2026-04-18 00:06 53.65893 -78.91104 31105 ft 324 kts 10°
2026-04-18 00:06 53.70057 -78.88215 31111 ft 324 kts 10°
2026-04-18 00:07 53.74236 -78.85309 31117 ft 324 kts 10°
2026-04-18 00:07 53.78403 -78.82405 31122 ft 325 kts
2026-04-18 00:08 53.82587 -78.79480 31125 ft 325 kts
2026-04-18 00:08 53.86766 -78.76556 31130 ft 325 kts
2026-04-18 00:09 53.90243 -78.74116 31133 ft 325 kts
2026-04-18 00:09 53.94422 -78.71179 31137 ft 325 kts
2026-04-18 00:10 53.98611 -78.68228 31140 ft 326 kts
2026-04-18 00:10 54.02799 -78.65272 31143 ft 326 kts
2026-04-18 00:11 54.06996 -78.62302 31146 ft 326 kts
2026-04-18 00:11 54.11155 -78.59353 31149 ft 326 kts
2026-04-18 00:12 54.15334 -78.56386 31154 ft 326 kts
2026-04-18 00:12 54.19511 -78.53413 31156 ft 325 kts
2026-04-18 00:13 54.23687 -78.50434 31159 ft 325 kts
2026-04-18 00:13 54.27865 -78.47446 31163 ft 325 kts
2026-04-18 00:14 54.32050 -78.44448 31169 ft 325 kts
2026-04-18 00:14 54.36228 -78.41447 31169 ft 325 kts
2026-04-18 00:15 54.40390 -78.38453 31169 ft 325 kts
2026-04-18 00:15 54.44549 -78.35452 31174 ft 325 kts
2026-04-18 00:16 54.48702 -78.32449 31177 ft 325 kts
2026-04-18 00:16 54.52879 -78.29421 31178 ft 325 kts
2026-04-18 00:17 54.57017 -78.26416 31178 ft 325 kts
2026-04-18 00:17 54.61185 -78.23379 31186 ft 325 kts
2026-04-18 00:18 54.65353 -78.20340 31185 ft 324 kts
2026-04-18 00:18 54.69515 -78.17294 31185 ft 324 kts
2026-04-18 00:19 54.73652 -78.14262 31191 ft 323 kts
2026-04-18 00:19 54.77780 -78.11230 31193 ft 323 kts
2026-04-18 00:20 54.81923 -78.08180 31199 ft 322 kts
2026-04-18 00:20 54.86044 -78.05143 31195 ft 322 kts
2026-04-18 00:21 54.90192 -78.02076 31201 ft 322 kts
2026-04-18 00:21 54.94289 -77.99041 31207 ft 322 kts
2026-04-18 00:22 54.98411 -77.95981 31212 ft 322 kts
2026-04-18 00:22 54.99804 -77.94945 31216 ft 322 kts
2026-04-18 00:23 55.06811 -77.89723 31226 ft 321 kts
2026-04-18 00:23 55.10893 -77.86672 31228 ft 321 kts
2026-04-18 00:24 55.14998 -77.83596 31235 ft 321 kts
2026-04-18 00:24 55.19111 -77.80506 31235 ft 321 kts
2026-04-18 00:25 55.23212 -77.77417 31237 ft 321 kts
2026-04-18 00:25 55.27315 -77.74321 31235 ft 321 kts
2026-04-18 00:26 55.31413 -77.71221 31241 ft 320 kts
2026-04-18 00:26 55.35508 -77.68117 31242 ft 320 kts
2026-04-18 00:27 55.39595 -77.65012 31236 ft 320 kts
2026-04-18 00:27 55.43686 -77.61896 31239 ft 320 kts
2026-04-18 00:28 55.47777 -77.58774 31239 ft 320 kts
2026-04-18 00:28 55.51869 -77.55645 31239 ft 320 kts
2026-04-18 00:29 55.55932 -77.52532 31241 ft 320 kts
2026-04-18 00:29 55.60017 -77.49394 31243 ft 320 kts
2026-04-18 00:30 55.64102 -77.46250 31247 ft 320 kts
2026-04-18 00:30 55.68185 -77.43099 31253 ft 320 kts
2026-04-18 00:31 55.72269 -77.39942 31252 ft 320 kts
2026-04-18 00:31 55.76352 -77.36776 31257 ft 320 kts
2026-04-18 00:32 55.80437 -77.33602 31257 ft 320 kts
2026-04-18 00:32 55.84515 -77.30428 31263 ft 320 kts
2026-04-18 00:33 55.88594 -77.27241 31263 ft 320 kts
2026-04-18 00:33 55.92673 -77.24048 31265 ft 320 kts
2026-04-18 00:34 55.96748 -77.20851 31268 ft 320 kts
2026-04-18 00:34 56.00819 -77.17651 31267 ft 320 kts
2026-04-18 00:35 56.04891 -77.14441 31271 ft 319 kts
2026-04-18 00:35 56.08958 -77.11229 31275 ft 319 kts
2026-04-18 00:36 56.12992 -77.08033 31276 ft 319 kts
2026-04-18 00:36 56.17051 -77.04814 31280 ft 319 kts
2026-04-18 00:37 56.21102 -77.01593 31274 ft 318 kts
2026-04-18 00:37 56.25157 -76.98362 31282 ft 318 kts
2026-04-18 00:38 56.29205 -76.95128 31293 ft 318 kts
2026-04-18 00:38 56.33255 -76.91902 31293 ft 317 kts
2026-04-18 00:38 56.35282 -76.90541 31292 ft 306 kts 358°
2026-04-18 00:39 56.37316 -76.89347 31291 ft 310 kts
2026-04-18 00:39 56.39341 -76.87755 31296 ft 324 kts
2026-04-18 00:39 56.41339 -76.85802 31296 ft 327 kts 10°
2026-04-18 00:40 56.45363 -76.82239 31297 ft 319 kts
2026-04-18 00:40 56.49392 -76.78729 31299 ft 322 kts
2026-04-18 00:41 56.52738 -76.75753 31299 ft 321 kts
2026-04-18 00:41 56.56760 -76.72218 31301 ft 322 kts
2026-04-18 00:42 56.60783 -76.68644 31304 ft 321 kts
2026-04-18 00:42 56.64806 -76.65078 31307 ft 322 kts
2026-04-18 00:43 56.68830 -76.61494 31305 ft 322 kts
2026-04-18 00:43 56.72857 -76.57902 31308 ft 322 kts
2026-04-18 00:44 56.76876 -76.54308 31309 ft 322 kts
2026-04-18 00:44 56.80863 -76.50731 31321 ft 322 kts
2026-04-18 00:45 56.84882 -76.47123 31320 ft 322 kts
2026-04-18 00:45 56.88899 -76.43506 31319 ft 321 kts
2026-04-18 00:46 56.92911 -76.39886 31318 ft 322 kts
2026-04-18 00:46 56.96923 -76.36256 31322 ft 321 kts
2026-04-18 00:47 57.00932 -76.32621 31323 ft 322 kts
2026-04-18 00:47 57.04947 -76.28970 31326 ft 321 kts
2026-04-18 00:48 57.08956 -76.25319 31328 ft 321 kts
2026-04-18 00:48 57.12957 -76.21661 31330 ft 322 kts
2026-04-18 00:49 57.18964 -76.16159 31334 ft 321 kts
2026-04-18 00:49 57.22936 -76.12505 31336 ft 321 kts
2026-04-18 00:50 57.26932 -76.08818 31334 ft 321 kts
2026-04-18 00:50 57.30921 -76.05138 31337 ft 320 kts
2026-04-18 00:51 57.34911 -76.01440 31341 ft 320 kts
2026-04-18 00:51 57.38891 -75.97745 31339 ft 320 kts
2026-04-18 00:52 57.42877 -75.94035 31342 ft 320 kts
2026-04-18 00:52 57.46845 -75.90333 31347 ft 319 kts
2026-04-18 00:53 57.50820 -75.86613 31345 ft 319 kts
2026-04-18 00:53 57.54788 -75.82896 31345 ft 319 kts
2026-04-18 00:54 57.58750 -75.79176 31347 ft 319 kts
2026-04-18 00:54 57.62712 -75.75442 31349 ft 319 kts
2026-04-18 00:55 57.66692 -75.71686 31344 ft 319 kts
2026-04-18 00:55 57.70617 -75.67970 31347 ft 318 kts
2026-04-18 00:56 57.74565 -75.64227 31347 ft 318 kts
2026-04-18 00:56 57.78543 -75.60440 31350 ft 318 kts
2026-04-18 00:57 57.82457 -75.56712 31351 ft 317 kts
2026-04-18 00:57 57.86389 -75.52952 31349 ft 317 kts
2026-04-18 00:58 57.90324 -75.49178 31352 ft 317 kts
2026-04-18 00:58 57.94245 -75.45411 31351 ft 316 kts
2026-04-18 00:59 57.98157 -75.41643 31351 ft 316 kts
2026-04-18 00:59 58.02078 -75.37854 31351 ft 315 kts
2026-04-18 01:00 58.05970 -75.34087 31351 ft 315 kts
2026-04-18 01:00 58.09217 -75.30934 31351 ft 314 kts
2026-04-18 01:01 58.17366 -75.23397 31339 ft 277 kts 347°
2026-04-18 01:02 58.19149 -75.23223 31348 ft 245 kts 333°
2026-04-18 01:02 58.20823 -75.23575 31347 ft 242 kts 331°
2026-04-18 01:02 58.22616 -75.23364 31349 ft 274 kts 346°
2026-04-18 01:02 58.24535 -75.22246 31351 ft 306 kts
2026-04-18 01:03 58.28411 -75.18634 31351 ft 311 kts
2026-04-18 01:03 58.32267 -75.14753 31351 ft 313 kts
2026-04-18 01:04 58.36114 -75.10936 31352 ft 311 kts
2026-04-18 01:04 58.39943 -75.07113 31351 ft 311 kts
2026-04-18 01:05 58.43169 -75.03886 31351 ft 310 kts
2026-04-18 01:06 58.44478 -75.02577 31351 ft 310 kts
2026-04-18 01:06 58.48294 -74.98743 31353 ft 309 kts
2026-04-18 01:07 58.52111 -74.94905 31354 ft 309 kts
2026-04-18 01:07 58.55885 -74.91095 31349 ft 308 kts
2026-04-18 01:08 58.59700 -74.87238 31349 ft 308 kts
2026-04-18 01:08 58.63480 -74.83404 31346 ft 307 kts
2026-04-18 01:09 58.67227 -74.79597 31350 ft 306 kts
2026-04-18 01:09 58.70984 -74.75769 31343 ft 306 kts
2026-04-18 01:10 58.74737 -74.71936 31342 ft 305 kts
2026-04-18 01:10 58.78480 -74.68102 31343 ft 304 kts
2026-04-18 01:11 58.82218 -74.64266 31345 ft 304 kts
2026-04-18 01:11 58.85953 -74.60425 31338 ft 304 kts
2026-04-18 01:12 58.89673 -74.56591 31342 ft 303 kts
2026-04-18 01:12 58.93397 -74.52743 31340 ft 303 kts
2026-04-18 01:13 58.97108 -74.49000 31340 ft 294 kts 359°
2026-04-18 01:13 58.98954 -74.47349 31343 ft 295 kts 359°
2026-04-18 01:13 59.00807 -74.45489 31343 ft 304 kts
2026-04-18 01:14 59.04499 -74.41494 31341 ft 301 kts
2026-04-18 01:14 59.06346 -74.39601 31335 ft 300 kts
2026-04-18 01:14 59.08201 -74.37690 31338 ft 301 kts
2026-04-18 01:15 59.11879 -74.33815 31336 ft 301 kts
2026-04-18 01:15 59.13721 -74.31885 31336 ft 300 kts
2026-04-18 01:15 59.15564 -74.29954 31335 ft 300 kts
2026-04-18 01:16 59.17400 -74.28023 31333 ft 300 kts
2026-04-18 01:16 59.19200 -74.26125 31334 ft 299 kts
2026-04-18 01:16 59.21058 -74.24164 31332 ft 299 kts
2026-04-18 01:16 59.22896 -74.22226 31332 ft 299 kts
2026-04-18 01:17 59.24722 -74.20297 31329 ft 299 kts
2026-04-18 01:17 59.26572 -74.18337 31334 ft 298 kts
2026-04-18 01:17 59.28388 -74.16413 31332 ft 298 kts
2026-04-18 01:17 59.30202 -74.14489 31329 ft 298 kts
2026-04-18 01:18 59.32026 -74.12551 31332 ft 298 kts
2026-04-18 01:18 59.33847 -74.10614 31333 ft 297 kts
2026-04-18 01:18 59.35696 -74.08647 31327 ft 297 kts
2026-04-18 01:18 59.37497 -74.06727 31327 ft 297 kts
2026-04-18 01:19 59.39315 -74.04784 31333 ft 297 kts
2026-04-18 01:19 59.41128 -74.02847 31326 ft 297 kts
2026-04-18 01:19 59.42955 -74.00892 31327 ft 297 kts
2026-04-18 01:19 59.44761 -73.98958 31327 ft 297 kts
2026-04-18 01:20 59.46585 -73.97000 31324 ft 297 kts
2026-04-18 01:20 59.48395 -73.95058 31325 ft 296 kts
2026-04-18 01:20 59.50201 -73.93117 31326 ft 296 kts
2026-04-18 01:20 59.52017 -73.91165 31324 ft 297 kts
2026-04-18 01:21 59.53834 -73.89206 31323 ft 297 kts
2026-04-18 01:21 59.55637 -73.87259 31323 ft 296 kts
2026-04-18 01:21 59.57450 -73.85301 31326 ft 296 kts
2026-04-18 01:21 59.59255 -73.83349 31321 ft 296 kts
2026-04-18 01:22 59.61068 -73.81386 31321 ft 296 kts
2026-04-18 01:22 59.62875 -73.79426 31317 ft 296 kts
2026-04-18 01:22 59.64681 -73.77467 31319 ft 296 kts
2026-04-18 01:22 59.66488 -73.75505 31317 ft 297 kts
2026-04-18 01:23 59.68295 -73.73535 31320 ft 297 kts
2026-04-18 01:23 59.70107 -73.71560 31318 ft 297 kts
2026-04-18 01:23 59.71918 -73.69586 31316 ft 297 kts
2026-04-18 01:23 59.73719 -73.67617 31318 ft 297 kts
2026-04-18 01:24 59.75539 -73.65626 31313 ft 297 kts
2026-04-18 01:24 59.77342 -73.63653 31317 ft 297 kts
2026-04-18 01:24 59.79156 -73.61660 31313 ft 297 kts
2026-04-18 01:24 59.80969 -73.59669 31310 ft 297 kts
2026-04-18 01:25 59.82777 -73.57680 31317 ft 297 kts
2026-04-18 01:25 59.84589 -73.55686 31316 ft 297 kts
2026-04-18 01:25 59.86400 -73.53690 31311 ft 298 kts
2026-04-18 01:25 59.87622 -73.52340 31314 ft 298 kts
2026-04-18 01:26 59.89437 -73.50333 31308 ft 298 kts
2026-04-18 01:26 59.91832 -73.47684 31306 ft 298 kts
2026-04-18 01:26 59.93640 -73.45681 31310 ft 298 kts
2026-04-18 01:26 59.95449 -73.43674 31298 ft 298 kts
2026-04-18 01:27 59.97257 -73.41664 31307 ft 298 kts
2026-04-18 01:27 59.99067 -73.39652 31304 ft 298 kts
2026-04-18 01:27 60.00270 -73.38313 31302 ft 298 kts
2026-04-18 01:27 60.02693 -73.35612 31304 ft 298 kts
2026-04-18 01:28 60.03894 -73.34271 31303 ft 298 kts
2026-04-18 01:28 60.05702 -73.32249 31302 ft 297 kts
2026-04-18 01:28 60.07514 -73.30225 31296 ft 298 kts
2026-04-18 01:28 60.09905 -73.27549 31298 ft 297 kts
2026-04-18 01:29 60.11125 -73.26180 31299 ft 298 kts
2026-04-18 01:29 60.13520 -73.23491 31301 ft 298 kts
2026-04-18 01:29 60.14738 -73.22121 31301 ft 297 kts
2026-04-18 01:29 60.16548 -73.20085 31298 ft 297 kts
2026-04-18 01:30 60.18331 -73.18076 31295 ft 297 kts
2026-04-18 01:30 60.20136 -73.16038 31298 ft 297 kts
2026-04-18 01:30 60.21939 -73.14002 31296 ft 297 kts
2026-04-18 01:30 60.23744 -73.11961 31299 ft 298 kts
2026-04-18 01:31 60.25550 -73.09914 31294 ft 298 kts
2026-04-18 01:31 60.27355 -73.07867 31296 ft 298 kts
2026-04-18 01:31 60.29160 -73.05818 31297 ft 298 kts
2026-04-18 01:31 60.30964 -73.03768 31291 ft 298 kts
2026-04-18 01:32 60.32776 -73.01704 31292 ft 298 kts
2026-04-18 01:32 60.34580 -72.99647 31289 ft 298 kts
2026-04-18 01:32 60.36389 -72.97581 31283 ft 298 kts
2026-04-18 01:32 60.38192 -72.95520 31287 ft 298 kts
2026-04-18 01:33 60.39974 -72.93479 31284 ft 298 kts
2026-04-18 01:33 60.41807 -72.91380 31287 ft 299 kts
2026-04-18 01:33 60.43590 -72.89332 31286 ft 299 kts
2026-04-18 01:33 60.45400 -72.87250 31285 ft 299 kts
2026-04-18 01:34 60.47207 -72.85171 31285 ft 299 kts
2026-04-18 01:34 60.49017 -72.83087 31285 ft 299 kts
2026-04-18 01:34 60.50824 -72.81002 31282 ft 299 kts
2026-04-18 01:34 60.52634 -72.78910 31282 ft 299 kts
2026-04-18 01:35 60.54441 -72.76820 31279 ft 299 kts
2026-04-18 01:35 60.56249 -72.74727 31279 ft 299 kts
2026-04-18 01:35 60.58059 -72.72629 31277 ft 299 kts 10°
2026-04-18 01:35 60.59865 -72.70529 31274 ft 299 kts 10°
2026-04-18 01:36 60.61670 -72.68431 31271 ft 299 kts 10°
2026-04-18 01:36 60.63483 -72.66322 31273 ft 300 kts 10°
2026-04-18 01:36 60.65273 -72.64236 31276 ft 300 kts 11°
2026-04-18 01:36 60.67083 -72.62122 31273 ft 300 kts 11°
2026-04-18 01:37 60.68892 -72.60010 31272 ft 300 kts 11°
2026-04-18 01:37 60.70698 -72.57898 31269 ft 300 kts 11°
2026-04-18 01:37 60.72512 -72.55774 31271 ft 300 kts 11°
2026-04-18 01:37 60.74320 -72.53651 31272 ft 300 kts 11°
2026-04-18 01:38 60.76133 -72.51522 31267 ft 300 kts 11°
2026-04-18 01:38 60.77945 -72.49393 31268 ft 300 kts 12°
2026-04-18 01:38 60.79761 -72.47254 31269 ft 300 kts 12°
2026-04-18 01:38 60.81573 -72.45117 31269 ft 300 kts 12°
2026-04-18 01:39 60.85197 -72.40835 31263 ft 301 kts 12°
2026-04-18 01:39 60.87004 -72.38694 31266 ft 300 kts 12°
2026-04-18 01:39 60.88815 -72.36551 31259 ft 301 kts 12°
2026-04-18 01:40 60.92445 -72.32236 31267 ft 301 kts 13°
2026-04-18 01:40 60.96043 -72.27954 31267 ft 301 kts 13°
2026-04-18 01:41 60.99666 -72.23624 31259 ft 301 kts 13°
2026-04-18 01:41 61.03288 -72.19287 31262 ft 301 kts 13°
2026-04-18 01:42 61.06911 -72.14935 31261 ft 301 kts 14°
2026-04-18 01:42 61.10531 -72.10577 31255 ft 301 kts 14°
2026-04-18 01:43 61.14148 -72.06209 31254 ft 301 kts 14°
2026-04-18 01:43 61.17777 -72.01816 31254 ft 302 kts 14°
2026-04-18 01:44 61.21405 -71.97413 31247 ft 302 kts 15°
2026-04-18 01:44 61.25030 -71.92999 31249 ft 302 kts 15°
2026-04-18 01:45 61.28607 -71.88636 31241 ft 302 kts 15°
2026-04-18 01:45 61.32241 -71.84194 31246 ft 302 kts 15°
2026-04-18 01:46 61.35864 -71.79748 31236 ft 302 kts 16°
2026-04-18 01:46 61.39498 -71.75279 31239 ft 303 kts 16°
2026-04-18 01:47 61.43130 -71.70801 31234 ft 303 kts 17°
2026-04-18 01:47 61.46734 -71.66344 31236 ft 303 kts 17°
2026-04-18 01:48 61.50376 -71.61829 31234 ft 304 kts 17°
2026-04-18 01:48 61.54014 -71.57305 31232 ft 304 kts 18°
2026-04-18 01:49 61.57653 -71.52765 31234 ft 304 kts 18°
2026-04-18 01:49 61.61296 -71.48209 31233 ft 304 kts 18°
2026-04-18 01:50 61.64915 -71.43669 31234 ft 305 kts 19°
2026-04-18 01:50 61.68560 -71.39084 31235 ft 305 kts 19°
2026-04-18 01:51 61.72197 -71.34496 31234 ft 305 kts 19°
2026-04-18 01:51 61.75841 -71.29889 31229 ft 305 kts 19°
2026-04-18 01:52 61.79478 -71.25274 31226 ft 305 kts 20°
2026-04-18 01:52 61.83116 -71.20648 31229 ft 305 kts 20°
2026-04-18 01:53 61.86754 -71.16009 31228 ft 305 kts 20°
2026-04-18 01:54 61.92214 -71.09026 31223 ft 305 kts 20°
2026-04-18 01:54 61.95832 -71.04391 31221 ft 305 kts 20°
2026-04-18 01:55 61.99307 -70.98992 31219 ft 316 kts 32°
2026-04-18 01:55 62.02627 -70.92920 31220 ft 311 kts 28°
2026-04-18 01:56 62.06044 -70.87265 31218 ft 312 kts 30°
2026-04-18 01:56 62.09420 -70.81412 31217 ft 312 kts 29°
2026-04-18 01:57 62.12806 -70.75623 31211 ft 312 kts 30°
2026-04-18 01:57 62.16180 -70.69799 31211 ft 311 kts 30°
2026-04-18 01:58 62.19529 -70.64014 31210 ft 311 kts 30°
2026-04-18 01:58 62.22898 -70.58171 31207 ft 311 kts 30°
2026-04-18 01:59 62.26260 -70.52327 31210 ft 311 kts 30°
2026-04-18 01:59 62.29615 -70.46477 31204 ft 311 kts 30°
2026-04-18 02:00 62.32976 -70.40597 31199 ft 311 kts 31°
2026-04-18 02:00 62.36325 -70.34723 31200 ft 311 kts 31°
2026-04-18 02:01 62.39680 -70.28819 31194 ft 310 kts 31°
2026-04-18 02:01 62.43027 -70.22914 31195 ft 310 kts 31°
2026-04-18 02:02 62.46345 -70.17045 31191 ft 310 kts 31°
2026-04-18 02:02 62.49676 -70.11131 30964 ft 307 kts 31°
2026-04-18 02:02 62.51319 -70.08206 30594 ft 304 kts 31°
2026-04-18 02:03 62.52939 -70.05318 30211 ft 299 kts 32°
2026-04-18 02:03 62.54533 -70.02477 29799 ft 295 kts 32°
2026-04-18 02:03 62.56115 -69.99655 29422 ft 293 kts 32°
2026-04-18 02:03 62.57689 -69.96843 29043 ft 294 kts 32°
2026-04-18 02:04 62.59269 -69.94012 28652 ft 295 kts 32°
2026-04-18 02:04 62.60851 -69.91173 28259 ft 296 kts 33°
2026-04-18 02:04 62.62440 -69.88317 27868 ft 296 kts 33°
2026-04-18 02:04 62.64023 -69.85469 27482 ft 295 kts 33°
2026-04-18 02:05 62.65606 -69.82618 27094 ft 295 kts 33°
2026-04-18 02:05 62.67161 -69.79812 26711 ft 295 kts 34°
2026-04-18 02:05 62.68760 -69.76923 26320 ft 295 kts 34°
2026-04-18 02:05 62.70315 -69.74110 25935 ft 294 kts 34°
2026-04-18 02:06 62.71887 -69.71259 25553 ft 294 kts 34°
2026-04-18 02:06 62.73460 -69.68407 25168 ft 294 kts 34°
2026-04-18 02:06 62.75031 -69.65551 24778 ft 293 kts 35°
2026-04-18 02:06 62.76594 -69.62707 24394 ft 293 kts 35°
2026-04-18 02:07 62.78162 -69.59846 24001 ft 293 kts 35°
2026-04-18 02:07 62.79727 -69.56993 23596 ft 292 kts 35°
2026-04-18 02:07 62.81284 -69.54148 23190 ft 292 kts 35°
2026-04-18 02:07 62.82842 -69.51294 22800 ft 292 kts 35°
2026-04-18 02:08 62.84396 -69.48444 22408 ft 293 kts 36°
2026-04-18 02:08 62.85960 -69.45572 22015 ft 293 kts 36°
2026-04-18 02:08 62.87529 -69.42688 21626 ft 293 kts 36°
2026-04-18 02:08 62.89091 -69.39812 21241 ft 294 kts 36°
2026-04-18 02:09 62.90658 -69.36924 20845 ft 294 kts 36°
2026-04-18 02:09 62.92224 -69.34031 20461 ft 294 kts 36°
2026-04-18 02:09 62.93793 -69.31127 20074 ft 295 kts 36°
2026-04-18 02:09 62.95355 -69.28237 19687 ft 295 kts 36°
2026-04-18 02:10 62.96925 -69.25324 19298 ft 296 kts 37°
2026-04-18 02:10 62.98498 -69.22400 18908 ft 296 kts 37°
2026-04-18 02:10 63.00075 -69.19470 18522 ft 297 kts 37°
2026-04-18 02:10 63.01646 -69.16541 18098 ft 297 kts 38°
2026-04-18 02:11 63.03227 -69.13594 17712 ft 297 kts 38°
2026-04-18 02:11 63.04808 -69.10643 17310 ft 298 kts 38°
2026-04-18 02:11 63.06366 -69.07727 16931 ft 298 kts 38°
2026-04-18 02:11 63.07975 -69.04713 16530 ft 299 kts 39°
2026-04-18 02:12 63.09540 -69.01779 16140 ft 299 kts 39°
2026-04-18 02:12 63.11127 -68.98798 15747 ft 299 kts 39°
2026-04-18 02:12 63.12710 -68.95818 15348 ft 300 kts 39°
2026-04-18 02:12 63.14297 -68.92825 14957 ft 299 kts 39°
2026-04-18 02:13 63.15874 -68.89848 14565 ft 297 kts 39°
2026-04-18 02:13 63.17442 -68.86886 14182 ft 295 kts 39°
2026-04-18 02:13 63.18993 -68.83952 13789 ft 293 kts 39°
2026-04-18 02:13 63.20539 -68.81022 13389 ft 291 kts 39°
2026-04-18 02:14 63.22069 -68.78113 13007 ft 290 kts 39°
2026-04-18 02:14 63.23096 -68.76160 12755 ft 289 kts 39°
2026-04-18 02:14 63.24620 -68.73260 12375 ft 287 kts 39°
2026-04-18 02:14 63.26134 -68.70376 12003 ft 286 kts 39°
2026-04-18 02:15 63.27634 -68.67512 11629 ft 284 kts 39°
2026-04-18 02:15 63.29131 -68.64649 11253 ft 282 kts 39°
2026-04-18 02:15 63.30614 -68.61810 10883 ft 281 kts 39°
2026-04-18 02:15 63.32094 -68.58973 10515 ft 279 kts 39°
2026-04-18 02:16 63.33557 -68.56164 10152 ft 278 kts 39°
2026-04-18 02:16 63.35016 -68.53360 9763 ft 276 kts 38°
2026-04-18 02:16 63.36463 -68.50575 9406 ft 274 kts 38°
2026-04-18 02:16 63.37897 -68.47811 9050 ft 272 kts 39°
2026-04-18 02:17 63.39325 -68.45054 8693 ft 270 kts 39°
2026-04-18 02:17 63.40724 -68.42349 8348 ft 268 kts 38°
2026-04-18 02:17 63.42128 -68.39633 8001 ft 267 kts 38°
2026-04-18 02:17 63.43530 -68.36918 7645 ft 265 kts 38°
2026-04-18 02:18 63.44916 -68.34227 7296 ft 263 kts 38°
2026-04-18 02:18 63.46313 -68.31512 6951 ft 262 kts 38°
2026-04-18 02:18 63.47665 -68.28879 6623 ft 250 kts 39°
2026-04-18 02:18 63.48881 -68.26496 6354 ft 213 kts 37°
2026-04-18 02:19 63.49934 -68.24439 6202 ft 191 kts 37°
2026-04-18 02:19 63.50915 -68.22535 6012 ft 185 kts 37°
2026-04-18 02:19 63.51880 -68.20657 5772 ft 183 kts 37°
2026-04-18 02:19 63.52844 -68.18774 5534 ft 183 kts 36°
2026-04-18 02:20 63.53885 -68.17236 5286 ft 177 kts 20°
2026-04-18 02:20 63.55074 -68.16711 5048 ft 173 kts
2026-04-18 02:20 63.56223 -68.16387 4794 ft 159 kts
2026-04-18 02:20 63.57265 -68.16431 4511 ft 144 kts 338°
2026-04-18 02:21 63.58084 -68.17376 4336 ft 117 kts 327°
2026-04-18 02:21 63.58635 -68.18431 4193 ft 95 kts 322°
2026-04-18 02:21 63.59105 -68.19365 4084 ft 87 kts 319°
2026-04-18 02:21 63.59549 -68.20272 3989 ft 85 kts 318°
2026-04-18 02:22 63.59982 -68.21186 3884 ft 85 kts 318°
2026-04-18 02:22 63.60409 -68.22107 3784 ft 85 kts 318°
2026-04-18 02:22 63.60838 -68.23021 3680 ft 85 kts 318°
2026-04-18 02:22 63.61261 -68.23930 3577 ft 84 kts 317°
2026-04-18 02:23 63.61677 -68.24847 3473 ft 83 kts 319°
2026-04-18 02:23 63.62089 -68.25752 3376 ft 83 kts 317°
2026-04-18 02:23 63.62500 -68.26636 3272 ft 83 kts 319°
2026-04-18 02:23 63.62906 -68.27543 3167 ft 82 kts 317°
2026-04-18 02:24 63.63315 -68.28425 3070 ft 81 kts 318°
2026-04-18 02:24 63.63715 -68.29309 2966 ft 80 kts 318°
2026-04-18 02:24 63.64117 -68.30195 2866 ft 81 kts 317°
2026-04-18 02:24 63.64520 -68.31074 2766 ft 80 kts 317°
2026-04-18 02:25 63.64920 -68.31949 2673 ft 80 kts 317°
2026-04-18 02:25 63.65316 -68.32822 2568 ft 79 kts 317°
2026-04-18 02:25 63.65716 -68.33686 2462 ft 80 kts 317°
2026-04-18 02:25 63.66106 -68.34559 2361 ft 79 kts 317°
2026-04-18 02:26 63.66503 -68.35420 2268 ft 80 kts 316°
2026-04-18 02:26 63.66892 -68.36279 2164 ft 77 kts 316°
2026-04-18 02:26 63.67275 -68.37123 2075 ft 78 kts 317°
2026-04-18 02:26 63.67660 -68.37977 1974 ft 77 kts 317°
2026-04-18 02:27 63.68047 -68.38814 1875 ft 78 kts 316°
2026-04-18 02:27 63.68427 -68.39667 1776 ft 77 kts 317°
2026-04-18 02:27 63.68815 -68.40524 1683 ft 79 kts 316°
2026-04-18 02:27 63.69209 -68.41394 1569 ft 80 kts 316°
2026-04-18 02:28 63.69607 -68.42263 1451 ft 80 kts 317°
2026-04-18 02:28 63.70003 -68.43148 1336 ft 81 kts 316°
2026-04-18 02:28 63.70210 -68.43594 1276 ft 80 kts 317°
2026-04-18 02:28 63.70605 -68.44483 1166 ft 81 kts 315°
2026-04-18 02:29 63.71009 -68.45356 1048 ft 81 kts 316°
2026-04-18 02:29 63.71406 -68.46250 936 ft 80 kts 316°
2026-04-18 02:29 63.71803 -68.47103 831 ft 78 kts 315°
2026-04-18 02:29 63.72187 -68.47962 734 ft 77 kts 315°
2026-04-18 02:30 63.72571 -68.48817 625 ft 78 kts 315°
2026-04-18 02:30 63.72951 -68.49653 536 ft 77 kts 315°
2026-04-18 02:30 63.73333 -68.50495 464 ft 76 kts 315°
2026-04-18 02:30 63.73713 -68.51319 391 ft 76 kts 317°
2026-04-18 02:31 63.74097 -68.52117 311 ft 74 kts 317°
2026-04-18 02:31 63.74466 -68.52920 221 ft 73 kts 317°
2026-04-18 02:31 63.74820 -68.53738 104 ft 72 kts 315°
2026-04-18 02:31 63.75127 -68.54417 81 ft 48 kts 316°
2026-04-18 02:32 63.75257 -68.54722 82 ft 20 kts 314°
2026-04-18 02:32 63.75319 -68.54862 84 ft 6 kts 315°
2026-04-18 02:32 63.75333 -68.54893 87 ft 0 kts 315°
2026-04-18 02:32 63.75359 -68.54949 85 ft 13 kts 319°
2026-04-18 02:33 63.75426 -68.55093 88 ft 10 kts 324°
2026-04-18 02:33 63.75470 -68.55078 89 ft 5 kts 46°
2026-04-18 02:33 63.75520 -68.54964 90 ft 14 kts 46°
2026-04-18 02:33 63.75560 -68.54871 88 ft 11 kts 45°
2026-04-18 02:34 63.75604 -68.54770 92 ft 2 kts 99°
2026-04-18 02:34 63.75578 -68.54702 89 ft 14 kts 135°
2026-04-18 02:34 63.75507 -68.54548 86 ft 13 kts 136°
2026-04-18 02:34 63.75448 -68.54413 85 ft 11 kts 132°
2026-04-18 02:35 63.75398 -68.54280 84 ft 10 kts 93°
2026-04-18 02:35 63.75430 -68.54174 85 ft 7 kts 50°
2026-04-18 02:35 63.75461 -68.54105 83 ft 5 kts 44°
2026-04-18 02:35 63.75486 -68.54060 83 ft 6 kts
2026-04-18 02:36 63.75500 -68.54079 86 ft 0 kts 320°